Time;durP1;ratioP1;P1;durP2;ratioP2;P2;SDS_P1;SDS_P2;PMS_P1;PMS_P2;Temp;Humidity;BMP_temperature;BMP_pressure;BME280_temperature;BME280_humidity;BME280_pressure;Samples;Min_cycle;Max_cycle;Signal;HPM_P1;HPM_P2
2021/05/03 00:01:28;;;;;;;4.60;2.80;;;;;;;;;;5055933;28;20324;-81
2021/05/03 00:03:55;;;;;;;2.75;2.47;;;;;;;;;;5056340;28;20202;-81
2021/05/03 00:06:22;;;;;;;4.15;3.20;;;;;;;;;;5055179;28;20205;-81
2021/05/03 00:08:49;;;;;;;2.50;2.28;;;;;;;;;;5055989;28;20209;-81
2021/05/03 00:11:16;;;;;;;2.25;2.10;;;;;;;;;;5055841;28;20214;-81
2021/05/03 00:13:43;;;;;;;2.58;2.38;;;;;;;;;;5056112;28;20748;-81
2021/05/03 00:16:10;;;;;;;3.15;2.85;;;;;;;;;;5055997;28;20694;-80
2021/05/03 00:18:37;;;;;;;2.33;2.10;;;;;;;;;;5055960;28;20206;-80
2021/05/03 00:21:04;;;;;;;2.67;2.45;;;;;;;;;;5055234;28;20232;-80
2021/05/03 00:23:31;;;;;;;2.60;2.40;;;;;;;;;;5056236;28;20190;-80
2021/05/03 00:25:57;;;;;;;3.63;2.20;;;;;;;;;;5056175;28;20202;-80
2021/05/03 00:28:25;;;;;;;2.63;2.42;;;;;;;;;;5055789;28;20201;-80
2021/05/03 00:30:52;;;;;;;3.53;2.60;;;;;;;;;;5056061;28;20225;-80
2021/05/03 00:33:19;;;;;;;3.15;2.85;;;;;;;;;;5055519;28;20691;-81
2021/05/03 00:35:45;;;;;;;3.15;2.40;;;;;;;;;;5055258;28;20217;-80
2021/05/03 00:38:12;;;;;;;2.50;2.30;;;;;;;;;;5056262;28;20209;-80
2021/05/03 00:40:39;;;;;;;4.68;2.45;;;;;;;;;;5055530;28;20229;-80
2021/05/03 00:43:06;;;;;;;2.75;2.55;;;;;;;;;;5054445;28;20204;-80
2021/05/03 00:45:34;;;;;;;2.35;2.15;;;;;;;;;;5056257;28;20300;-80
2021/05/03 00:48:01;;;;;;;2.80;2.50;;;;;;;;;;5055684;28;20186;-80
2021/05/03 00:50:29;;;;;;;3.38;3.08;;;;;;;;;;5055627;28;20222;-80
2021/05/03 00:52:57;;;;;;;2.90;2.58;;;;;;;;;;5055941;28;20259;-80
2021/05/03 00:55:24;;;;;;;3.50;2.63;;;;;;;;;;5055715;28;20672;-80
2021/05/03 00:57:52;;;;;;;3.20;2.58;;;;;;;;;;5054865;28;20292;-80
2021/05/03 01:00:19;;;;;;;2.42;2.17;;;;;;;;;;5055195;28;20233;-80
2021/05/03 01:02:47;;;;;;;4.30;2.60;;;;;;;;;;5055069;28;20209;-80
2021/05/03 01:05:14;;;;;;;2.60;2.40;;;;;;;;;;5055651;28;20198;-80
2021/05/03 01:07:41;;;;;;;2.75;2.55;;;;;;;;;;5054771;28;20202;-80
2021/05/03 01:10:09;;;;;;;2.88;2.45;;;;;;;;;;5055394;28;20758;-80
2021/05/03 01:12:37;;;;;;;2.22;2.10;;;;;;;;;;5055037;28;20205;-80
2021/05/03 01:15:05;;;;;;;2.50;2.40;;;;;;;;;;5054380;28;20206;-80
2021/05/03 01:17:33;;;;;;;2.63;2.40;;;;;;;;;;5055394;28;20244;-80
2021/05/03 01:20:08;;;;;;;10.50;3.00;;;;;;;;;;5054699;28;20198;-80
2021/05/03 01:22:37;;;;;;;2.60;2.40;;;;;;;;;;5054675;28;20197;-81
2021/05/03 01:25:05;;;;;;;2.00;1.90;;;;;;;;;;5054734;28;20205;-81
2021/05/03 01:27:34;;;;;;;3.13;2.42;;;;;;;;;;5054912;28;20201;-80
2021/05/03 01:30:01;;;;;;;2.85;2.47;;;;;;;;;;5054872;28;20197;-82
2021/05/03 01:32:29;;;;;;;2.60;2.40;;;;;;;;;;5054768;28;20201;-79
2021/05/03 01:34:56;;;;;;;2.38;2.15;;;;;;;;;;5055129;28;20220;-79
2021/05/03 01:37:23;;;;;;;2.58;2.38;;;;;;;;;;5054347;28;20202;-80
2021/05/03 01:39:51;;;;;;;2.40;2.20;;;;;;;;;;5055175;28;20263;-79
2021/05/03 01:42:18;;;;;;;2.85;2.55;;;;;;;;;;5053673;28;20222;-79
2021/05/03 01:44:46;;;;;;;2.42;2.22;;;;;;;;;;5054777;28;20209;-81
2021/05/03 01:47:13;;;;;;;2.45;2.20;;;;;;;;;;5054254;28;20212;-80
2021/05/03 01:49:40;;;;;;;3.10;2.03;;;;;;;;;;5055212;28;20182;-80
2021/05/03 01:52:08;;;;;;;3.03;2.83;;;;;;;;;;5054539;28;20222;-80
2021/05/03 01:54:35;;;;;;;2.67;2.47;;;;;;;;;;5053094;28;20198;-80
2021/05/03 01:57:03;;;;;;;3.03;2.70;;;;;;;;;;5054336;28;20209;-80
2021/05/03 01:59:33;;;;;;;2.50;2.38;;;;;;;;;;5053991;28;20197;-79
2021/05/03 02:02:00;;;;;;;3.22;2.88;;;;;;;;;;5052506;28;20261;-80
2021/05/03 02:04:27;;;;;;;2.83;2.40;;;;;;;;;;5054209;28;20259;-80
2021/05/03 02:06:54;;;;;;;2.80;2.60;;;;;;;;;;5054303;28;20206;-80
2021/05/03 02:09:21;;;;;;;2.58;2.00;;;;;;;;;;5054184;28;20202;-80
2021/05/03 02:11:49;;;;;;;2.90;2.70;;;;;;;;;;5053882;28;20225;-80
2021/05/03 02:14:16;;;;;;;3.63;3.15;;;;;;;;;;5053156;28;20568;-80
2021/05/03 02:16:43;;;;;;;2.85;2.65;;;;;;;;;;5052386;28;20213;-80
2021/05/03 02:19:11;;;;;;;3.22;2.60;;;;;;;;;;5053840;28;20198;-80
2021/05/03 02:21:38;;;;;;;3.65;2.65;;;;;;;;;;5053909;28;20252;-80
2021/05/03 02:24:06;;;;;;;3.58;3.25;;;;;;;;;;5053716;28;20216;-80
2021/05/03 02:26:33;;;;;;;3.90;2.67;;;;;;;;;;5053827;28;20239;-80
2021/05/03 02:29:00;;;;;;;4.75;2.97;;;;;;;;;;5053652;28;20201;-80
2021/05/03 02:31:28;;;;;;;2.40;2.20;;;;;;;;;;5053952;28;20225;-80
2021/05/03 02:33:54;;;;;;;3.10;2.78;;;;;;;;;;5053393;28;20197;-80
2021/05/03 02:36:21;;;;;;;2.40;2.20;;;;;;;;;;5053401;28;20201;-80
2021/05/03 02:38:48;;;;;;;2.47;2.28;;;;;;;;;;5053808;28;20201;-81
2021/05/03 02:41:15;;;;;;;2.83;2.53;;;;;;;;;;5053856;28;20221;-80
2021/05/03 02:43:42;;;;;;;2.72;2.53;;;;;;;;;;5053735;28;20209;-80
2021/05/03 02:46:08;;;;;;;2.80;2.50;;;;;;;;;;5053512;28;20201;-80
2021/05/03 02:48:36;;;;;;;3.22;2.88;;;;;;;;;;5053336;28;20737;-80
2021/05/03 02:51:04;;;;;;;3.00;2.80;;;;;;;;;;5053586;28;20229;-80
2021/05/03 02:53:30;;;;;;;3.03;2.70;;;;;;;;;;5053982;28;20206;-80
2021/05/03 02:55:57;;;;;;;3.53;2.30;;;;;;;;;;5053323;28;20209;-80
2021/05/03 02:58:24;;;;;;;3.03;2.80;;;;;;;;;;5053903;28;20690;-80
2021/05/03 03:00:51;;;;;;;2.45;2.25;;;;;;;;;;5052586;28;20229;-80
2021/05/03 03:03:18;;;;;;;2.50;2.30;;;;;;;;;;5053684;28;20201;-80
2021/05/03 03:05:46;;;;;;;2.55;2.35;;;;;;;;;;5054173;28;20671;-80
2021/05/03 03:08:12;;;;;;;3.22;2.22;;;;;;;;;;5057013;28;20205;-80
2021/05/03 03:10:39;;;;;;;2.97;2.72;;;;;;;;;;5057298;28;20248;-80
2021/05/03 03:13:06;;;;;;;2.78;2.58;;;;;;;;;;5057182;28;20208;-80
2021/05/03 03:15:35;;;;;;;2.38;2.20;;;;;;;;;;5057273;28;20201;-81
2021/05/03 03:18:03;;;;;;;3.60;3.25;;;;;;;;;;5057423;28;20202;-81
2021/05/03 03:20:31;;;;;;;4.20;2.58;;;;;;;;;;5057806;28;20218;-81
2021/05/03 03:22:58;;;;;;;2.30;2.10;;;;;;;;;;5057746;28;20217;-81
2021/05/03 03:25:26;;;;;;;2.65;2.45;;;;;;;;;;5057481;28;20216;-81
2021/05/03 03:27:53;;;;;;;2.38;2.20;;;;;;;;;;5057953;28;20292;-80
2021/05/03 03:30:21;;;;;;;2.13;2.03;;;;;;;;;;5057256;28;20217;-80
2021/05/03 03:32:48;;;;;;;2.65;2.45;;;;;;;;;;5056303;28;20236;-80
2021/05/03 03:35:17;;;;;;;3.45;2.88;;;;;;;;;;5056836;28;20204;-80
2021/05/03 03:37:45;;;;;;;3.22;2.40;;;;;;;;;;5057646;28;20205;-80
2021/05/03 03:40:14;;;;;;;2.65;2.40;;;;;;;;;;5056499;28;20722;-80
2021/05/03 03:42:41;;;;;;;2.40;2.20;;;;;;;;;;5056421;28;20226;-81
2021/05/03 03:45:11;;;;;;;3.17;2.88;;;;;;;;;;5056882;28;20197;-81
2021/05/03 03:47:38;;;;;;;2.80;2.60;;;;;;;;;;5057540;28;20202;-81
2021/05/03 03:50:07;;;;;;;2.53;2.33;;;;;;;;;;5057394;28;20209;-81
2021/05/03 03:52:33;;;;;;;3.83;2.83;;;;;;;;;;5057814;28;20707;-81
2021/05/03 03:55:00;;;;;;;5.53;2.90;;;;;;;;;;5056826;28;20208;-81
2021/05/03 03:57:29;;;;;;;3.28;2.75;;;;;;;;;;5057150;28;20259;-80
2021/05/03 03:59:57;;;;;;;2.58;2.38;;;;;;;;;;5057522;28;20240;-81
2021/05/03 04:02:24;;;;;;;3.33;2.60;;;;;;;;;;5056755;28;20225;-81
2021/05/03 04:05:03;;;;;;;3.33;3.03;;;;;;;;;;5057379;28;20607;-81
2021/05/03 04:07:34;;;;;;;2.17;2.00;;;;;;;;;;5057263;28;20217;-80
2021/05/03 04:10:10;;;;;;;3.50;2.72;;;;;;;;;;5056945;28;20202;-81
2021/05/03 04:21:08;;;;;;;2.30;1.95;;;;;;;;;;5056336;28;20232;-81
2021/05/03 04:23:53;;;;;;;2.90;2.50;;;;;;;;;;5056314;28;20233;-81
2021/05/03 04:26:24;;;;;;;2.80;2.53;;;;;;;;;;5056597;28;20244;-81
2021/05/03 04:28:53;;;;;;;3.08;2.85;;;;;;;;;;5055673;28;20564;-81
2021/05/03 04:31:21;;;;;;;3.03;2.83;;;;;;;;;;5056045;28;20233;-81
2021/05/03 04:33:48;;;;;;;2.80;2.58;;;;;;;;;;5056774;28;20205;-80
2021/05/03 04:36:16;;;;;;;5.00;2.75;;;;;;;;;;5056713;28;20454;-81
2021/05/03 04:38:43;;;;;;;4.60;4.15;;;;;;;;;;5056688;28;20653;-81
2021/05/03 04:41:10;;;;;;;3.22;2.97;;;;;;;;;;5055942;28;20225;-81
2021/05/03 04:43:37;;;;;;;3.80;3.42;;;;;;;;;;5055579;28;20572;-81
2021/05/03 04:46:05;;;;;;;3.50;2.88;;;;;;;;;;5057358;28;20198;-81
2021/05/03 04:48:32;;;;;;;6.60;3.00;;;;;;;;;;5057076;28;20722;-80
2021/05/03 04:50:59;;;;;;;3.60;3.30;;;;;;;;;;5056060;28;20230;-80
2021/05/03 04:53:27;;;;;;;3.83;3.50;;;;;;;;;;5056167;28;20208;-81
2021/05/03 04:55:54;;;;;;;3.47;2.83;;;;;;;;;;5055008;28;20205;-81
2021/05/03 04:58:20;;;;;;;2.97;2.78;;;;;;;;;;5056120;28;20209;-80
2021/05/03 05:00:47;;;;;;;4.25;2.70;;;;;;;;;;5055881;28;20238;-80
2021/05/03 05:03:15;;;;;;;3.42;3.13;;;;;;;;;;5056308;28;20228;-80
2021/05/03 05:05:44;;;;;;;3.63;3.33;;;;;;;;;;5056989;28;20257;-81
2021/05/03 05:08:11;;;;;;;4.97;2.72;;;;;;;;;;5056934;28;20201;-81
2021/05/03 05:10:38;;;;;;;2.97;2.78;;;;;;;;;;5056140;28;20233;-81
2021/05/03 05:13:05;;;;;;;3.03;2.72;;;;;;;;;;5056153;28;20205;-81
2021/05/03 05:15:32;;;;;;;3.75;2.60;;;;;;;;;;5056858;28;20198;-81
2021/05/03 05:17:59;;;;;;;3.40;2.90;;;;;;;;;;5056864;28;20202;-81
2021/05/03 05:20:27;;;;;;;3.83;3.45;;;;;;;;;;5056538;28;20623;-80
2021/05/03 05:22:54;;;;;;;5.40;2.97;;;;;;;;;;5056640;28;20233;-80
2021/05/03 05:25:21;;;;;;;4.07;3.63;;;;;;;;;;5055894;28;20209;-80
2021/05/03 05:27:48;;;;;;;5.10;3.35;;;;;;;;;;5058949;28;20656;-80
2021/05/03 05:30:16;;;;;;;3.15;2.72;;;;;;;;;;5057867;28;20232;-79
2021/05/03 05:32:43;;;;;;;4.72;4.20;;;;;;;;;;5057467;28;20232;-79
2021/05/03 05:35:11;;;;;;;4.00;3.30;;;;;;;;;;5058334;28;20686;-80
2021/05/03 05:37:39;;;;;;;3.47;3.17;;;;;;;;;;5057970;28;20739;-81
2021/05/03 05:40:09;;;;;;;3.72;3.42;;;;;;;;;;5058172;28;20202;-80
2021/05/03 05:42:36;;;;;;;4.30;3.90;;;;;;;;;;5058371;28;20217;-80
2021/05/03 05:45:04;;;;;;;6.93;4.30;;;;;;;;;;5058167;28;20201;-81
2021/05/03 05:47:30;;;;;;;3.75;3.42;;;;;;;;;;5058685;28;20201;-80
2021/05/03 05:49:57;;;;;;;3.47;3.17;;;;;;;;;;5058190;28;20572;-80
2021/05/03 05:52:24;;;;;;;5.10;3.55;;;;;;;;;;5059299;28;20202;-80
2021/05/03 05:54:52;;;;;;;3.60;3.30;;;;;;;;;;5058547;28;20213;-80
2021/05/03 05:57:19;;;;;;;4.90;3.90;;;;;;;;;;5059175;28;20571;-79
2021/05/03 05:59:45;;;;;;;3.80;3.50;;;;;;;;;;5057967;28;20205;-80
2021/05/03 06:02:12;;;;;;;5.53;4.20;;;;;;;;;;5058738;28;20240;-80
2021/05/03 06:04:39;;;;;;;4.05;3.65;;;;;;;;;;5057556;28;20205;-80
2021/05/03 06:07:06;;;;;;;3.97;3.67;;;;;;;;;;5057773;28;20198;-81
2021/05/03 06:09:33;;;;;;;5.93;4.97;;;;;;;;;;5058018;28;20582;-81
2021/05/03 06:12:00;;;;;;;4.68;3.50;;;;;;;;;;5058634;28;20707;-81
2021/05/03 06:14:27;;;;;;;4.00;3.55;;;;;;;;;;5059010;28;20208;-80
2021/05/03 06:16:54;;;;;;;4.35;3.95;;;;;;;;;;5058058;28;20201;-80
2021/05/03 06:19:20;;;;;;;4.40;3.50;;;;;;;;;;5057785;28;20212;-81
2021/05/03 06:21:47;;;;;;;4.00;3.67;;;;;;;;;;5056946;28;20232;-81
2021/05/03 06:24:14;;;;;;;4.28;3.92;;;;;;;;;;5057180;28;20624;-81
2021/05/03 06:26:41;;;;;;;5.03;4.55;;;;;;;;;;5056789;28;20201;-81
2021/05/03 06:29:08;;;;;;;5.38;4.45;;;;;;;;;;5057942;28;20206;-81
2021/05/03 06:31:35;;;;;;;4.20;3.80;;;;;;;;;;5057004;28;20236;-81
2021/05/03 06:34:02;;;;;;;4.78;3.90;;;;;;;;;;5057253;28;20182;-81
2021/05/03 06:36:29;;;;;;;5.75;4.30;;;;;;;;;;5057128;28;20251;-81
2021/05/03 06:38:56;;;;;;;5.78;3.90;;;;;;;;;;5055752;28;20206;-80
2021/05/03 06:41:23;;;;;;;3.92;3.38;;;;;;;;;;5056423;28;20704;-80
2021/05/03 06:43:50;;;;;;;4.63;4.22;;;;;;;;;;5057027;28;20221;-81
2021/05/03 06:46:17;;;;;;;3.92;3.60;;;;;;;;;;5055417;28;20212;-80
2021/05/03 06:48:44;;;;;;;4.70;3.35;;;;;;;;;;5056270;28;20209;-81
2021/05/03 06:51:11;;;;;;;4.32;3.78;;;;;;;;;;5055637;28;20259;-81
2021/05/03 06:53:38;;;;;;;3.28;2.97;;;;;;;;;;5057115;28;20258;-81
2021/05/03 06:56:05;;;;;;;3.33;3.03;;;;;;;;;;5055897;28;20259;-81
2021/05/03 06:58:32;;;;;;;3.10;2.80;;;;;;;;;;5056638;28;20206;-80
2021/05/03 07:00:59;;;;;;;2.95;2.70;;;;;;;;;;5057103;28;20501;-80
2021/05/03 07:03:26;;;;;;;3.72;3.03;;;;;;;;;;5057016;28;20221;-80
2021/05/03 07:05:53;;;;;;;4.07;2.80;;;;;;;;;;5057089;28;20205;-81
2021/05/03 07:08:24;;;;;;;3.65;3.13;;;;;;;;;;5058127;28;20210;-81
2021/05/03 07:10:52;;;;;;;3.30;3.00;;;;;;;;;;5056845;28;20597;-80
2021/05/03 07:13:19;;;;;;;2.88;2.60;;;;;;;;;;5057534;28;20598;-80
2021/05/03 07:15:47;;;;;;;2.65;2.45;;;;;;;;;;5056475;28;20268;-80
2021/05/03 07:18:13;;;;;;;4.05;2.80;;;;;;;;;;5056855;28;20248;-80
2021/05/03 07:20:41;;;;;;;3.20;2.92;;;;;;;;;;5057275;28;20592;-82
2021/05/03 07:23:09;;;;;;;3.38;3.08;;;;;;;;;;5057172;28;20232;-81
2021/05/03 07:25:35;;;;;;;3.97;2.80;;;;;;;;;;5057211;28;20205;-81
2021/05/03 07:28:02;;;;;;;3.45;2.08;;;;;;;;;;5056527;28;20202;-81
2021/05/03 07:30:29;;;;;;;2.50;2.25;;;;;;;;;;5057870;28;20225;-81
2021/05/03 07:32:56;;;;;;;3.05;2.25;;;;;;;;;;5059312;28;20194;-81
2021/05/03 07:35:23;;;;;;;2.60;2.40;;;;;;;;;;5057423;28;20684;-82
2021/05/03 07:37:51;;;;;;;3.05;2.60;;;;;;;;;;5058195;28;20198;-81
2021/05/03 07:40:18;;;;;;;4.15;2.75;;;;;;;;;;5057568;28;20233;-81
2021/05/03 07:42:45;;;;;;;3.20;2.78;;;;;;;;;;5056300;28;20251;-82
2021/05/03 07:45:15;;;;;;;6.50;3.03;;;;;;;;;;5057427;28;20213;-82
2021/05/03 07:47:43;;;;;;;3.88;2.80;;;;;;;;;;5058464;28;20201;-81
2021/05/03 07:50:12;;;;;;;4.40;3.20;;;;;;;;;;5056646;28;20221;-81
2021/05/03 07:52:39;;;;;;;3.13;2.47;;;;;;;;;;5056791;28;20206;-82
2021/05/03 07:55:10;;;;;;;3.75;2.30;;;;;;;;;;5057415;28;20202;-82
2021/05/03 07:57:36;;;;;;;3.10;2.33;;;;;;;;;;5058022;28;20205;-82
2021/05/03 08:00:05;;;;;;;2.83;2.50;;;;;;;;;;5056890;28;20200;-82
2021/05/03 08:02:32;;;;;;;3.08;2.88;;;;;;;;;;5057920;28;20213;-82
2021/05/03 08:04:59;;;;;;;2.78;2.58;;;;;;;;;;5057763;28;20225;-81
2021/05/03 08:07:26;;;;;;;3.70;3.28;;;;;;;;;;5057176;28;20202;-82
2021/05/03 08:09:52;;;;;;;3.47;2.88;;;;;;;;;;5057035;28;20404;-82
2021/05/03 08:12:21;;;;;;;2.83;2.60;;;;;;;;;;5057567;28;20205;-81
2021/05/03 08:14:49;;;;;;;3.25;2.55;;;;;;;;;;5056362;28;20202;-82
2021/05/03 08:17:16;;;;;;;7.75;2.78;;;;;;;;;;5057805;28;20206;-82
2021/05/03 08:19:45;;;;;;;4.32;2.95;;;;;;;;;;5057708;28;20205;-81
2021/05/03 08:22:12;;;;;;;3.05;2.75;;;;;;;;;;5057615;28;20221;-82
2021/05/03 08:24:39;;;;;;;2.70;2.50;;;;;;;;;;5059331;28;20287;-82
2021/05/03 08:27:07;;;;;;;4.90;3.38;;;;;;;;;;5058849;28;20206;-82
2021/05/03 08:29:35;;;;;;;4.03;3.05;;;;;;;;;;5059265;28;20205;-82
2021/05/03 08:32:04;;;;;;;3.47;3.17;;;;;;;;;;5060023;28;20225;-81
2021/05/03 08:34:31;;;;;;;3.53;3.22;;;;;;;;;;5059346;28;20198;-82
2021/05/03 08:36:58;;;;;;;3.38;2.97;;;;;;;;;;5059237;28;20202;-82
2021/05/03 08:39:26;;;;;;;2.90;2.70;;;;;;;;;;5061609;28;20252;-82
2021/05/03 08:41:56;;;;;;;4.15;3.70;;;;;;;;;;5063377;28;20312;-82
2021/05/03 08:44:23;;;;;;;3.10;2.80;;;;;;;;;;5058592;28;20241;-81
2021/05/03 08:46:50;;;;;;;3.50;3.22;;;;;;;;;;5057168;28;20274;-81
2021/05/03 08:49:19;;;;;;;5.38;3.97;;;;;;;;;;5056884;28;20456;-82
2021/05/03 08:51:51;;;;;;;3.13;2.90;;;;;;;;;;5058171;28;20221;-81
2021/05/03 08:54:25;;;;;;;5.13;3.38;;;;;;;;;;5057446;28;20628;-81
2021/05/03 08:56:53;;;;;;;4.32;3.50;;;;;;;;;;5057096;28;20212;-80
2021/05/03 08:59:20;;;;;;;3.60;3.30;;;;;;;;;;5058351;28;20201;-81
2021/05/03 09:01:52;;;;;;;4.32;3.55;;;;;;;;;;5057397;28;20719;-81
2021/05/03 09:04:19;;;;;;;3.22;2.92;;;;;;;;;;5056815;28;20324;-81
2021/05/03 09:07:09;;;;;;;3.20;2.90;;;;;;;;;;5056745;28;20212;-80
2021/05/03 09:09:38;;;;;;;2.92;2.72;;;;;;;;;;5057366;28;20208;-81
2021/05/03 09:12:08;;;;;;;3.50;3.20;;;;;;;;;;5058129;28;20777;-81
2021/05/03 09:14:46;;;;;;;3.15;2.85;;;;;;;;;;5056054;28;20263;-81
2021/05/03 09:17:24;;;;;;;3.45;2.92;;;;;;;;;;5054929;28;20205;-81
2021/05/03 09:19:51;;;;;;;3.22;3.03;;;;;;;;;;5055891;28;20206;-82
2021/05/03 09:22:30;;;;;;;3.05;2.80;;;;;;;;;;5058015;28;20209;-81
2021/05/03 09:25:22;;;;;;;3.15;2.85;;;;;;;;;;5056191;28;20229;-80
2021/05/03 09:27:53;;;;;;;3.72;2.90;;;;;;;;;;5056835;28;20205;-82
2021/05/03 09:30:34;;;;;;;4.53;3.85;;;;;;;;;;5056872;28;20221;-80
2021/05/03 09:33:20;;;;;;;5.40;2.97;;;;;;;;;;5057335;28;20201;-81
2021/05/03 09:35:55;;;;;;;3.60;3.28;;;;;;;;;;5060869;28;20586;-81
2021/05/03 09:38:43;;;;;;;3.40;3.05;;;;;;;;;;5060037;28;20287;-82
2021/05/03 09:41:18;;;;;;;3.72;3.05;;;;;;;;;;5054267;28;20225;-81
2021/05/03 09:43:47;;;;;;;4.28;3.80;;;;;;;;;;5061564;28;20229;-81
2021/05/03 09:46:33;;;;;;;4.30;3.40;;;;;;;;;;5061586;28;20583;-81
2021/05/03 09:49:05;;;;;;;3.35;2.30;;;;;;;;;;5059985;28;20197;-81
2021/05/03 09:51:39;;;;;;;3.30;3.00;;;;;;;;;;5059015;28;20220;-81
2021/05/03 09:54:13;;;;;;;2.97;2.78;;;;;;;;;;5058632;28;20198;-80
2021/05/03 09:56:49;;;;;;;2.75;2.55;;;;;;;;;;5058949;28;20210;-80
2021/05/03 09:59:31;;;;;;;2.72;2.47;;;;;;;;;;5058456;28;20198;-80
2021/05/03 10:02:05;;;;;;;3.10;2.58;;;;;;;;;;5057616;28;20293;-81
2021/05/03 10:04:34;;;;;;;2.22;2.03;;;;;;;;;;5056365;28;20222;-81
2021/05/03 10:07:01;;;;;;;2.65;2.40;;;;;;;;;;5059310;28;20632;-80
2021/05/03 10:09:29;;;;;;;2.65;2.42;;;;;;;;;;5059383;28;20213;-80
2021/05/03 10:11:57;;;;;;;3.50;3.20;;;;;;;;;;5061965;28;20222;-80
2021/05/03 10:14:24;;;;;;;2.90;2.65;;;;;;;;;;5067025;28;20208;-81
2021/05/03 10:16:53;;;;;;;2.97;2.67;;;;;;;;;;5063709;28;20197;-80
2021/05/03 10:19:21;;;;;;;2.13;1.80;;;;;;;;;;5066723;28;20213;-80
2021/05/03 10:21:49;;;;;;;2.90;2.50;;;;;;;;;;5068031;28;20233;-80
2021/05/03 10:24:17;;;;;;;4.63;3.05;;;;;;;;;;5068578;28;20218;-80
2021/05/03 10:26:46;;;;;;;3.15;2.95;;;;;;;;;;5068996;28;20210;-80
2021/05/03 10:29:28;;;;;;;4.32;2.88;;;;;;;;;;5068866;28;20185;-80
2021/05/03 10:32:02;;;;;;;3.17;2.75;;;;;;;;;;5066827;28;20230;-82
2021/05/03 10:34:54;;;;;;;2.40;2.20;;;;;;;;;;5057489;28;20200;-81
2021/05/03 10:37:42;;;;;;;3.30;2.97;;;;;;;;;;5057534;28;20209;-82
2021/05/03 10:40:48;;;;;;;4.13;2.47;;;;;;;;;;5057425;28;20244;-81
2021/05/03 10:43:20;;;;;;;2.78;2.33;;;;;;;;;;5037816;28;20208;-81
2021/05/03 10:48:51;;;;;;;2.60;2.22;;;;;;;;;;5035713;28;20252;-82
2021/05/03 10:51:55;;;;;;;2.63;2.40;;;;;;;;;;5057640;28;20699;-81
2021/05/03 10:54:43;;;;;;;3.70;2.15;;;;;;;;;;5056041;28;20257;-81
2021/05/03 10:57:30;;;;;;;2.80;2.50;;;;;;;;;;5055701;28;20205;-82
2021/05/03 11:00:02;;;;;;;2.55;2.20;;;;;;;;;;5058399;28;20201;-82
2021/05/03 11:02:46;;;;;;;4.05;2.63;;;;;;;;;;5054639;28;20284;-82
2021/05/03 11:05:23;;;;;;;2.60;2.33;;;;;;;;;;5052251;28;20213;-82
2021/05/03 11:08:30;;;;;;;2.42;2.13;;;;;;;;;;5052424;28;20588;-81
2021/05/03 11:11:08;;;;;;;2.55;2.35;;;;;;;;;;5052933;28;20225;-82
2021/05/03 11:13:49;;;;;;;2.17;1.98;;;;;;;;;;5052622;28;20197;-81
2021/05/03 11:16:51;;;;;;;2.22;2.03;;;;;;;;;;5051972;28;20201;-82
2021/05/03 11:19:43;;;;;;;2.55;2.20;;;;;;;;;;5052567;28;20205;-82
2021/05/03 11:22:15;;;;;;;2.88;2.22;;;;;;;;;;5052807;28;20225;-82
2021/05/03 11:24:53;;;;;;;2.55;2.35;;;;;;;;;;5052307;28;20217;-82
2021/05/03 11:27:39;;;;;;;2.63;2.42;;;;;;;;;;5054451;28;20205;-81
2021/05/03 11:30:10;;;;;;;2.65;2.45;;;;;;;;;;5056880;28;20609;-82
2021/05/03 11:32:38;;;;;;;2.65;2.00;;;;;;;;;;5056863;28;20241;-82
2021/05/03 11:35:20;;;;;;;2.33;2.00;;;;;;;;;;5056507;28;20205;-82
2021/05/03 11:37:54;;;;;;;2.88;2.67;;;;;;;;;;5056617;28;20213;-82
2021/05/03 11:40:40;;;;;;;2.67;2.47;;;;;;;;;;5056030;28;20213;-81
2021/05/03 11:43:35;;;;;;;2.22;2.03;;;;;;;;;;5056393;28;20228;-82
2021/05/03 11:46:07;;;;;;;2.05;1.80;;;;;;;;;;5056243;28;20224;-82
2021/05/03 11:48:34;;;;;;;2.40;2.15;;;;;;;;;;5056350;28;20353;-81
2021/05/03 11:51:06;;;;;;;3.70;2.92;;;;;;;;;;5055613;28;20222;-80
2021/05/03 11:53:37;;;;;;;2.53;2.33;;;;;;;;;;5055580;28;20262;-81
2021/05/03 11:56:24;;;;;;;2.97;2.75;;;;;;;;;;5055257;28;20202;-81
2021/05/03 11:58:53;;;;;;;3.13;2.22;;;;;;;;;;5054968;28;20710;-80
2021/05/03 12:01:22;;;;;;;5.03;3.17;;;;;;;;;;5054569;28;20754;-79
2021/05/03 12:03:51;;;;;;;2.75;2.55;;;;;;;;;;5055518;28;20204;-80
2021/05/03 12:06:38;;;;;;;2.30;2.05;;;;;;;;;;5054518;28;20226;-80
2021/05/03 12:09:07;;;;;;;3.38;2.50;;;;;;;;;;5054925;28;20209;-79
2021/05/03 12:11:35;;;;;;;2.47;1.95;;;;;;;;;;5054445;28;20229;-81
2021/05/03 12:14:03;;;;;;;2.00;1.90;;;;;;;;;;5054809;28;20280;-80
2021/05/03 12:16:38;;;;;;;2.03;1.88;;;;;;;;;;5054234;28;20197;-80
2021/05/03 12:19:13;;;;;;;2.17;1.70;;;;;;;;;;5055101;28;20197;-80
2021/05/03 12:21:40;;;;;;;2.83;1.80;;;;;;;;;;5054725;28;20275;-80
2021/05/03 12:24:15;;;;;;;2.45;2.25;;;;;;;;;;5054550;28;20205;-80
2021/05/03 12:26:53;;;;;;;3.60;2.30;;;;;;;;;;5054789;28;20197;-80
2021/05/03 12:29:21;;;;;;;2.05;1.70;;;;;;;;;;5055162;28;20212;-79
2021/05/03 12:31:48;;;;;;;1.85;1.73;;;;;;;;;;5054402;28;20221;-80
2021/05/03 12:34:19;;;;;;;2.40;2.20;;;;;;;;;;5053810;28;20259;-80
2021/05/03 12:37:06;;;;;;;1.85;1.70;;;;;;;;;;5053952;28;20543;-80
2021/05/03 12:39:33;;;;;;;1.77;1.67;;;;;;;;;;5054242;28;20190;-80
2021/05/03 12:42:15;;;;;;;1.90;1.80;;;;;;;;;;5054063;28;20734;-78
2021/05/03 12:44:47;;;;;;;2.55;1.83;;;;;;;;;;5053677;28;20252;-80
2021/05/03 12:47:25;;;;;;;3.25;1.67;;;;;;;;;;5053776;28;20233;-80
2021/05/03 12:50:00;;;;;;;3.78;1.75;;;;;;;;;;5054202;28;20655;-80
2021/05/03 12:52:33;;;;;;;1.73;1.63;;;;;;;;;;5054286;28;20255;-80
2021/05/03 12:55:05;;;;;;;2.15;1.95;;;;;;;;;;5054021;28;20229;-79
2021/05/03 12:57:55;;;;;;;2.85;1.65;;;;;;;;;;5053901;28;20202;-79
2021/05/03 13:00:26;;;;;;;2.55;1.90;;;;;;;;;;5053827;28;20293;-80
2021/05/03 13:03:08;;;;;;;1.75;1.50;;;;;;;;;;5054150;28;20648;-79
2021/05/03 13:05:39;;;;;;;1.95;1.50;;;;;;;;;;5053374;28;20664;-81
2021/05/03 13:08:14;;;;;;;2.38;1.63;;;;;;;;;;5053539;28;20202;-80
2021/05/03 13:11:04;;;;;;;1.77;1.60;;;;;;;;;;5053808;28;20711;-80
2021/05/03 13:22:38;;;;;;;1.95;1.52;;;;;;;;;;5052988;28;20216;-80
2021/05/03 13:25:31;;;;;;;2.05;1.60;;;;;;;;;;5052801;28;20574;-80
2021/05/03 13:28:05;;;;;;;1.80;1.70;;;;;;;;;;5052848;28;20201;-81
2021/05/03 13:30:34;;;;;;;2.08;1.85;;;;;;;;;;5052839;28;20217;-80
2021/05/03 13:33:02;;;;;;;1.88;1.70;;;;;;;;;;5052647;28;20210;-80
2021/05/03 13:35:29;;;;;;;1.73;1.20;;;;;;;;;;5052496;28;20201;-80
2021/05/03 13:37:56;;;;;;;2.60;1.50;;;;;;;;;;5052865;28;20210;-81
2021/05/03 13:40:23;;;;;;;1.60;1.50;;;;;;;;;;5052227;28;20218;-80
2021/05/03 13:42:52;;;;;;;2.03;1.83;;;;;;;;;;5052566;28;20201;-81
2021/05/03 13:45:21;;;;;;;1.80;1.70;;;;;;;;;;5052439;28;20688;-80
2021/05/03 13:47:49;;;;;;;1.88;1.67;;;;;;;;;;5052773;28;20198;-80
2021/05/03 13:50:18;;;;;;;1.50;1.42;;;;;;;;;;5052220;28;20303;-80
2021/05/03 13:52:45;;;;;;;1.50;1.40;;;;;;;;;;5052717;28;20202;-81
2021/05/03 13:55:12;;;;;;;1.15;1.15;;;;;;;;;;5052075;28;20255;-80
2021/05/03 13:57:39;;;;;;;1.50;1.40;;;;;;;;;;5052715;28;20206;-81
2021/05/03 14:00:08;;;;;;;1.70;1.60;;;;;;;;;;5052656;28;20255;-81
2021/05/03 14:02:35;;;;;;;3.58;1.58;;;;;;;;;;5053011;28;20266;-81
2021/05/03 14:05:02;;;;;;;1.50;1.40;;;;;;;;;;5052335;28;20209;-80
2021/05/03 14:07:29;;;;;;;1.50;1.40;;;;;;;;;;5052607;28;20209;-81
2021/05/03 14:09:56;;;;;;;1.98;1.30;;;;;;;;;;5053045;28;20208;-82
2021/05/03 14:12:23;;;;;;;2.17;1.40;;;;;;;;;;5052177;28;20213;-81
2021/05/03 14:14:50;;;;;;;2.67;1.90;;;;;;;;;;5053051;28;20202;-82
2021/05/03 14:17:17;;;;;;;1.77;1.20;;;;;;;;;;5052678;28;20205;-82
2021/05/03 14:19:44;;;;;;;1.30;1.20;;;;;;;;;;5053160;28;20213;-81
2021/05/03 14:22:11;;;;;;;2.10;1.27;;;;;;;;;;5052497;28;20252;-81
2021/05/03 14:24:39;;;;;;;4.55;2.47;;;;;;;;;;5052723;28;20217;-81
2021/05/03 14:27:06;;;;;;;1.00;1.00;;;;;;;;;;5052384;28;20217;-81
2021/05/03 14:29:37;;;;;;;1.40;1.30;;;;;;;;;;5052886;28;20214;-81
2021/05/03 14:32:08;;;;;;;1.60;1.33;;;;;;;;;;5052680;28;20213;-82
2021/05/03 14:34:36;;;;;;;1.50;1.35;;;;;;;;;;5052849;28;20559;-81
2021/05/03 14:37:04;;;;;;;1.52;1.20;;;;;;;;;;5052284;28;20204;-82
2021/05/03 14:39:31;;;;;;;1.33;1.23;;;;;;;;;;5052557;28;20205;-82
2021/05/03 14:41:58;;;;;;;1.48;1.38;;;;;;;;;;5052613;28;20217;-82
2021/05/03 14:44:26;;;;;;;1.30;1.27;;;;;;;;;;5053222;28;20255;-81
2021/05/03 14:46:55;;;;;;;1.13;1.10;;;;;;;;;;5051649;28;20229;-81
2021/05/03 14:52:07;;;;;;;1.48;1.38;;;;;;;;;;5051621;28;20214;-81
2021/05/03 14:54:39;;;;;;;1.40;1.30;;;;;;;;;;5052329;28;20198;-81
2021/05/03 14:57:09;;;;;;;1.33;1.23;;;;;;;;;;5052431;28;20202;-81
2021/05/03 14:59:38;;;;;;;1.58;1.48;;;;;;;;;;5052555;28;20668;-81
2021/05/03 15:02:05;;;;;;;1.10;1.05;;;;;;;;;;5054149;28;20233;-81
2021/05/03 15:04:32;;;;;;;1.50;1.30;;;;;;;;;;5056206;28;20197;-81
2021/05/03 15:07:01;;;;;;;1.70;1.60;;;;;;;;;;5055951;28;20233;-81
2021/05/03 15:09:36;;;;;;;3.13;1.50;;;;;;;;;;5056505;28;20216;-81
2021/05/03 15:12:06;;;;;;;1.40;1.27;;;;;;;;;;5055992;28;20737;-81
2021/05/03 15:14:43;;;;;;;1.40;1.30;;;;;;;;;;5055951;28;20582;-81
2021/05/03 15:17:24;;;;;;;2.78;1.98;;;;;;;;;;5055249;28;20205;-81
2021/05/03 15:19:56;;;;;;;1.60;1.50;;;;;;;;;;5055548;28;20255;-80
2021/05/03 15:22:23;;;;;;;1.85;1.60;;;;;;;;;;5055624;28;20202;-81
2021/05/03 15:24:51;;;;;;;1.70;1.60;;;;;;;;;;5056170;28;20263;-81